Time;durP1;ratioP1;P1;durP2;ratioP2;P2;SDS_P1;SDS_P2;PMS_P1;PMS_P2;Temp;Humidity;BMP_temperature;BMP_pressure;BME280_temperature;BME280_humidity;BME280_pressure;Samples;Min_cycle;Max_cycle;Signal;HPM_P1;HPM_P2
2023/03/05 00:01:21;;;;;;;;;;;8.70;57.30;;;;;;5073693;28;19943;-69
2023/03/05 00:03:47;;;;;;;;;;;8.70;57.40;;;;;;5074074;28;20274;-69
2023/03/05 00:06:13;;;;;;;;;;;8.70;57.30;;;;;;5073033;28;19954;-69
2023/03/05 00:08:38;;;;;;;;;;;8.70;57.30;;;;;;5073642;28;19916;-69
2023/03/05 00:11:06;;;;;;;;;;;8.70;57.30;;;;;;5073855;28;19928;-69
2023/03/05 00:13:31;;;;;;;;;;;8.70;57.40;;;;;;5073956;28;19920;-69
2023/03/05 00:15:57;;;;;;;;;;;8.70;57.30;;;;;;5073845;28;20007;-69
2023/03/05 00:18:23;;;;;;;;;;;8.70;57.30;;;;;;5073916;28;19908;-69
2023/03/05 00:20:49;;;;;;;;;;;8.60;57.30;;;;;;5073939;28;19908;-70
2023/03/05 00:23:15;;;;;;;;;;;8.70;57.30;;;;;;5072214;28;19912;-69
2023/03/05 00:25:40;;;;;;;;;;;8.60;57.30;;;;;;5073811;28;19916;-69
2023/03/05 00:28:06;;;;;;;;;;;8.60;57.20;;;;;;5073870;28;19909;-69
2023/03/05 00:30:33;;;;;;;;;;;8.70;57.30;;;;;;5073513;28;19990;-68
2023/03/05 00:32:58;;;;;;;;;;;8.60;57.30;;;;;;5073454;28;20393;-69
2023/03/05 00:35:24;;;;;;;;;;;8.70;57.30;;;;;;5073473;28;19909;-69
2023/03/05 00:37:50;;;;;;;;;;;8.70;57.30;;;;;;5073487;28;19960;-69
2023/03/05 00:40:15;;;;;;;;;;;8.60;57.20;;;;;;5073536;28;19916;-69
2023/03/05 00:42:41;;;;;;;;;;;8.60;57.20;;;;;;5072816;28;19908;-71
2023/03/05 00:45:07;;;;;;;;;;;8.60;57.30;;;;;;5074896;28;20378;-69
2023/03/05 00:47:33;;;;;;;;;;;8.60;57.20;;;;;;5077732;28;20274;-69
2023/03/05 00:49:58;;;;;;;;;;;8.60;57.20;;;;;;5077463;28;19908;-69
2023/03/05 00:52:24;;;;;;;;;;;8.60;57.20;;;;;;5077342;28;19908;-69
2023/03/05 00:54:49;;;;;;;;;;;8.60;57.30;;;;;;5077903;28;19909;-69
2023/03/05 00:57:15;;;;;;;;;;;8.60;57.30;;;;;;5077219;28;20336;-69
2023/03/05 00:59:40;;;;;;;;;;;8.60;57.20;;;;;;5077401;28;20026;-69
2023/03/05 01:02:06;;;;;;;;;;;8.60;57.20;;;;;;5077331;28;19908;-69
2023/03/05 01:04:31;;;;;;;;;;;8.60;57.90;;;;;;5077177;28;20282;-69
2023/03/05 01:06:57;;;;;;;;;;;8.60;57.20;;;;;;5076465;28;19959;-69
2023/03/05 01:09:26;;;;;;;;;;;8.60;57.20;;;;;;5075549;28;20382;-69
2023/03/05 01:11:51;;;;;;;;;;;8.60;57.20;;;;;;5076461;28;19922;-70
2023/03/05 01:14:18;;;;;;;;;;;8.60;57.20;;;;;;5077007;28;19932;-69
2023/03/05 01:16:43;;;;;;;;;;;8.60;57.20;;;;;;5075812;28;19916;-69
2023/03/05 01:19:09;;;;;;;;;;;8.60;57.20;;;;;;5077053;28;20277;-69
2023/03/05 01:21:35;;;;;;;;;;;8.60;57.20;;;;;;5077099;28;19909;-69
2023/03/05 01:24:01;;;;;;;;;;;8.60;57.10;;;;;;5077055;28;19915;-69
2023/03/05 01:26:27;;;;;;;;;;;8.60;57.20;;;;;;5076768;28;20497;-69
2023/03/05 01:28:52;;;;;;;;;;;8.60;57.70;;;;;;5076879;28;19949;-69
2023/03/05 01:31:18;;;;;;;;;;;8.60;57.10;;;;;;5076636;28;19913;-69
2023/03/05 01:33:44;;;;;;;;;;;8.50;57.70;;;;;;5076576;28;20378;-69
2023/03/05 01:36:13;;;;;;;;;;;8.60;57.10;;;;;;5076547;28;19909;-69
2023/03/05 01:38:39;;;;;;;;;;;8.50;57.10;;;;;;5076472;28;20388;-68
2023/03/05 01:41:05;;;;;;;;;;;8.50;57.10;;;;;;5076504;28;19908;-69
2023/03/05 01:43:31;;;;;;;;;;;8.60;57.20;;;;;;5076848;28;20274;-68
2023/03/05 01:46:12;;;;;;;;;;;8.50;57.10;;;;;;5076381;28;19915;-68
2023/03/05 01:48:41;;;;;;;;;;;8.50;57.00;;;;;;5076215;28;19908;-68
2023/03/05 01:51:07;;;;;;;;;;;8.50;57.00;;;;;;5075249;28;19915;-68
2023/03/05 01:53:32;;;;;;;;;;;8.50;57.00;;;;;;5075030;28;19916;-69
2023/03/05 01:55:58;;;;;;;;;;;8.50;57.00;;;;;;5076223;28;19913;-69
2023/03/05 01:58:24;;;;;;;;;;;8.50;57.00;;;;;;5075313;28;19916;-68
2023/03/05 02:00:51;;;;;;;;;;;8.50;56.90;;;;;;5076399;28;19915;-68
2023/03/05 02:03:17;;;;;;;;;;;8.50;57.00;;;;;;5076060;28;19932;-69
2023/03/05 02:05:43;;;;;;;;;;;8.40;56.90;;;;;;5074901;28;20316;-69
2023/03/05 02:08:10;;;;;;;;;;;8.50;57.00;;;;;;5076264;28;19919;-70
2023/03/05 02:10:37;;;;;;;;;;;8.50;56.90;;;;;;5076337;28;19913;-69
2023/03/05 02:13:07;;;;;;;;;;;8.40;56.90;;;;;;5075698;28;19931;-69
2023/03/05 02:15:33;;;;;;;;;;;8.40;56.90;;;;;;5074642;28;20012;-69
2023/03/05 02:18:00;;;;;;;;;;;8.40;56.90;;;;;;5075667;28;19955;-69
2023/03/05 02:20:27;;;;;;;;;;;8.50;56.90;;;;;;5076134;28;20281;-68
2023/03/05 02:22:53;;;;;;;;;;;8.40;56.90;;;;;;5075900;28;19908;-68
2023/03/05 02:25:20;;;;;;;;;;;8.40;56.90;;;;;;5075855;28;20392;-68
2023/03/05 02:28:06;;;;;;;;;;;8.40;56.90;;;;;;5075682;28;19954;-68
2023/03/05 02:30:31;;;;;;;;;;;8.40;56.90;;;;;;5075254;28;19995;-68
2023/03/05 02:32:57;;;;;;;;;;;8.40;56.90;;;;;;5074518;28;20438;-69
2023/03/05 02:35:23;;;;;;;;;;;8.40;56.90;;;;;;5074347;28;19935;-69
2023/03/05 02:37:48;;;;;;;;;;;8.40;56.90;;;;;;5075579;28;19913;-69
2023/03/05 02:40:15;;;;;;;;;;;8.30;56.80;;;;;;5074105;28;19908;-69
2023/03/05 02:42:40;;;;;;;;;;;8.30;56.80;;;;;;5075465;28;20445;-69
2023/03/05 02:45:06;;;;;;;;;;;8.30;56.90;;;;;;5075856;28;19999;-69
2023/03/05 02:47:32;;;;;;;;;;;8.30;56.90;;;;;;5075749;28;19915;-69
2023/03/05 02:49:58;;;;;;;;;;;8.30;56.90;;;;;;5075232;28;19913;-69
2023/03/05 02:52:24;;;;;;;;;;;8.30;56.90;;;;;;5075110;28;19999;-69
2023/03/05 02:54:50;;;;;;;;;;;8.30;56.90;;;;;;5073969;28;19912;-69
2023/03/05 02:57:16;;;;;;;;;;;8.30;56.90;;;;;;5075086;28;19916;-68
2023/03/05 02:59:41;;;;;;;;;;;8.30;56.90;;;;;;5074896;28;19908;-69
2023/03/05 03:02:07;;;;;;;;;;;8.30;56.90;;;;;;5075224;28;20297;-69
2023/03/05 03:04:32;;;;;;;;;;;8.30;56.90;;;;;;5073775;28;20408;-69
2023/03/05 03:06:58;;;;;;;;;;;8.30;56.90;;;;;;5074938;28;19927;-68
2023/03/05 03:09:24;;;;;;;;;;;8.20;56.80;;;;;;5074809;28;19915;-69
2023/03/05 03:11:50;;;;;;;;;;;8.20;56.80;;;;;;5074722;28;19927;-68
2023/03/05 03:14:16;;;;;;;;;;;8.20;56.80;;;;;;5073338;28;19924;-69
2023/03/05 03:16:41;;;;;;;;;;;8.20;56.80;;;;;;5074814;28;19909;-69
2023/03/05 03:19:06;;;;;;;;;;;8.20;56.80;;;;;;5075075;28;19916;-70
2023/03/05 03:21:32;;;;;;;;;;;8.20;56.90;;;;;;5073307;28;20362;-69
2023/03/05 03:23:58;;;;;;;;;;;8.20;56.90;;;;;;5074604;28;19959;-69
2023/03/05 03:26:23;;;;;;;;;;;8.20;56.90;;;;;;5074501;28;20363;-69
2023/03/05 03:28:49;;;;;;;;;;;8.20;56.90;;;;;;5074330;28;19908;-69
2023/03/05 03:31:14;;;;;;;;;;;8.20;56.90;;;;;;5074464;28;19915;-69
2023/03/05 03:33:40;;;;;;;;;;;8.20;56.90;;;;;;5074629;28;20255;-70
2023/03/05 03:36:06;;;;;;;;;;;8.20;56.90;;;;;;5073672;28;19912;-70
2023/03/05 03:38:31;;;;;;;;;;;8.20;56.90;;;;;;5073655;28;19916;-69
2023/03/05 03:40:57;;;;;;;;;;;8.10;56.90;;;;;;5073003;28;19909;-69
2023/03/05 03:43:22;;;;;;;;;;;8.10;56.80;;;;;;5073987;28;19916;-69
2023/03/05 03:45:48;;;;;;;;;;;8.10;56.80;;;;;;5074398;28;20271;-70
2023/03/05 03:48:14;;;;;;;;;;;8.10;56.80;;;;;;5074260;28;19938;-70
2023/03/05 03:50:40;;;;;;;;;;;8.10;56.80;;;;;;5074142;28;19916;-70
2023/03/05 03:53:06;;;;;;;;;;;8.10;56.80;;;;;;5074010;28;19923;-69
2023/03/05 03:55:32;;;;;;;;;;;8.10;56.90;;;;;;5074092;28;20274;-69
2023/03/05 03:57:58;;;;;;;;;;;8.10;56.80;;;;;;5073876;28;19919;-69
2023/03/05 04:00:23;;;;;;;;;;;8.10;57.40;;;;;;5074120;28;20308;-69
2023/03/05 04:02:49;;;;;;;;;;;8.10;56.80;;;;;;5073004;28;19908;-70
2023/03/05 04:05:14;;;;;;;;;;;8.00;56.70;;;;;;5073979;28;19931;-69
2023/03/05 04:07:40;;;;;;;;;;;8.00;56.70;;;;;;5073908;28;20263;-69
2023/03/05 04:10:05;;;;;;;;;;;8.10;56.70;;;;;;5073795;28;19962;-69
2023/03/05 04:12:31;;;;;;;;;;;8.00;56.70;;;;;;5073863;28;20391;-69
2023/03/05 04:14:56;;;;;;;;;;;8.10;56.80;;;;;;5073753;28;19930;-69
2023/03/05 04:17:22;;;;;;;;;;;8.00;56.70;;;;;;5074039;28;19916;-69
2023/03/05 04:19:47;;;;;;;;;;;8.00;56.70;;;;;;5073378;28;19913;-68
2023/03/05 04:22:14;;;;;;;;;;;8.00;56.70;;;;;;5073784;28;19908;-69
2023/03/05 04:24:40;;;;;;;;;;;8.00;56.70;;;;;;5073786;28;19909;-69
2023/03/05 04:27:05;;;;;;;;;;;8.00;56.70;;;;;;5073472;28;19909;-69
2023/03/05 04:29:31;;;;;;;;;;;8.00;56.70;;;;;;5072598;28;20003;-69
2023/03/05 04:31:57;;;;;;;;;;;8.00;56.70;;;;;;5073289;28;19913;-69
2023/03/05 04:34:22;;;;;;;;;;;8.00;56.70;;;;;;5073524;28;19912;-69
2023/03/05 04:36:48;;;;;;;;;;;8.00;56.70;;;;;;5072370;28;19939;-69
2023/03/05 04:39:13;;;;;;;;;;;8.00;56.70;;;;;;5072353;28;20016;-69
2023/03/05 04:41:39;;;;;;;;;;;8.00;56.70;;;;;;5073441;28;19909;-68
2023/03/05 04:44:04;;;;;;;;;;;8.00;56.70;;;;;;5073627;28;19919;-69
2023/03/05 04:46:30;;;;;;;;;;;8.00;56.70;;;;;;5074163;28;19909;-69
2023/03/05 04:48:56;;;;;;;;;;;8.00;56.70;;;;;;5073508;28;19909;-68
2023/03/05 04:51:21;;;;;;;;;;;8.00;56.70;;;;;;5072250;28;20270;-69
2023/03/05 04:53:47;;;;;;;;;;;8.00;56.70;;;;;;5072142;28;19913;-70
2023/03/05 04:56:13;;;;;;;;;;;8.00;56.70;;;;;;5073282;28;19916;-69
2023/03/05 04:58:38;;;;;;;;;;;8.00;56.60;;;;;;5073527;28;19944;-70
2023/03/05 05:01:04;;;;;;;;;;;8.00;56.60;;;;;;5063556;28;19963;-70
2023/03/05 05:03:30;;;;;;;;;;;8.00;56.60;;;;;;5052119;28;19915;-69
2023/03/05 05:05:56;;;;;;;;;;;8.00;56.60;;;;;;5053422;28;20376;-69
2023/03/05 05:08:22;;;;;;;;;;;8.00;56.50;;;;;;5053191;28;19954;-69
2023/03/05 05:11:01;;;;;;;;;;;8.00;56.50;;;;;;5052733;28;19912;-69
2023/03/05 05:13:27;;;;;;;;;;;8.00;57.10;;;;;;5053370;28;19917;-69
2023/03/05 05:15:52;;;;;;;;;;;8.00;56.50;;;;;;5053420;28;19917;-69
2023/03/05 05:18:18;;;;;;;;;;;8.00;56.40;;;;;;5053011;28;19912;-70
2023/03/05 05:20:43;;;;;;;;;;;8.10;56.50;;;;;;5051862;28;19916;-70
2023/03/05 05:23:09;;;;;;;;;;;8.10;56.50;;;;;;5052976;28;19955;-69
2023/03/05 05:25:34;;;;;;;;;;;8.00;56.40;;;;;;5052768;28;20274;-68
2023/03/05 05:28:00;;;;;;;;;;;8.10;56.40;;;;;;5051743;28;19909;-70
2023/03/05 05:30:25;;;;;;;;;;;8.10;56.40;;;;;;5052923;28;19913;-68
2023/03/05 05:32:51;;;;;;;;;;;8.10;56.40;;;;;;5054796;28;19913;-69
2023/03/05 05:35:16;;;;;;;;;;;8.10;56.40;;;;;;5055492;28;19964;-69
2023/03/05 05:37:42;;;;;;;;;;;8.10;56.30;;;;;;5055376;28;19913;-69
2023/03/05 05:40:08;;;;;;;;;;;8.20;56.40;;;;;;5056808;28;19909;-69
2023/03/05 05:42:34;;;;;;;;;;;8.20;56.30;;;;;;5056622;28;20004;-69
2023/03/05 05:45:01;;;;;;;;;;;8.20;56.30;;;;;;5055326;28;19959;-70
2023/03/05 05:47:27;;;;;;;;;;;8.20;56.20;;;;;;5056816;28;20267;-69
2023/03/05 05:49:52;;;;;;;;;;;8.20;56.20;;;;;;5056712;28;19916;-69
2023/03/05 05:52:18;;;;;;;;;;;8.20;56.20;;;;;;5056726;28;19917;-70
2023/03/05 05:54:43;;;;;;;;;;;8.20;56.20;;;;;;5056398;28;20366;-69
2023/03/05 05:57:09;;;;;;;;;;;8.20;56.20;;;;;;5055748;28;20048;-69
2023/03/05 05:59:36;;;;;;;;;;;8.20;56.20;;;;;;5056575;28;20333;-70
2023/03/05 06:02:02;;;;;;;;;;;8.30;56.20;;;;;;5056344;28;19909;-69
2023/03/05 06:04:27;;;;;;;;;;;8.30;56.20;;;;;;5056367;28;19909;-69
2023/03/05 06:06:53;;;;;;;;;;;8.30;56.10;;;;;;5056057;28;20278;-69
2023/03/05 06:09:19;;;;;;;;;;;8.30;56.10;;;;;;5055099;28;19920;-70
2023/03/05 06:11:44;;;;;;;;;;;8.30;56.10;;;;;;5056360;28;19921;-69
2023/03/05 06:14:11;;;;;;;;;;;8.30;56.00;;;;;;5056316;28;20388;-69
2023/03/05 06:16:36;;;;;;;;;;;8.30;56.00;;;;;;5056429;28;19913;-69
2023/03/05 06:19:05;;;;;;;;;;;8.30;56.00;;;;;;5056215;28;19928;-69
2023/03/05 06:21:31;;;;;;;;;;;8.40;56.40;;;;;;5065318;28;20379;-67
2023/03/05 06:23:57;;;;;;;;;;;8.40;56.00;;;;;;5064374;28;19936;-71
2023/03/05 06:26:23;;;;;;;;;;;8.40;55.90;;;;;;5063523;28;19917;-70
2023/03/05 06:28:48;;;;;;;;;;;8.40;55.90;;;;;;5066505;28;20255;-70
2023/03/05 06:31:15;;;;;;;;;;;8.40;55.90;;;;;;5064485;28;19909;-69
2023/03/05 06:33:41;;;;;;;;;;;8.40;55.90;;;;;;5065019;28;19916;-69
2023/03/05 06:36:08;;;;;;;;;;;8.40;55.90;;;;;;5064911;28;19921;-69
2023/03/05 06:38:34;;;;;;;;;;;8.40;55.80;;;;;;5063657;28;20049;-70
2023/03/05 06:41:01;;;;;;;;;;;8.40;55.80;;;;;;5065418;28;19909;-69
2023/03/05 06:43:26;;;;;;;;;;;8.50;55.80;;;;;;5064448;28;20013;-70
2023/03/05 06:46:02;;;;;;;;;;;8.50;55.80;;;;;;5065185;28;20058;-70
2023/03/05 06:48:27;;;;;;;;;;;8.50;55.70;;;;;;5066521;28;19908;-70
2023/03/05 06:50:53;;;;;;;;;;;8.50;56.30;;;;;;5075312;28;19916;-65
2023/03/05 06:53:18;;;;;;;;;;;8.50;55.70;;;;;;5071056;28;20270;-71
2023/03/05 06:55:44;;;;;;;;;;;8.50;54.00;;;;;;5068063;28;19920;-69
2023/03/05 06:58:09;;;;;;;;;;;8.50;54.30;;;;;;5063592;28;19916;-68
2023/03/05 07:00:35;;;;;;;;;;;8.50;54.40;;;;;;5066259;28;19931;-69
2023/03/05 07:03:00;;;;;;;;;;;8.40;54.60;;;;;;5072947;28;19913;-69
2023/03/05 07:05:26;;;;;;;;;;;8.50;54.70;;;;;;5072739;28;19918;-69
2023/03/05 07:07:51;;;;;;;;;;;8.50;54.80;;;;;;5072894;28;19908;-69
2023/03/05 07:10:18;;;;;;;;;;;8.50;54.90;;;;;;5074146;28;19908;-69
2023/03/05 07:12:43;;;;;;;;;;;8.50;54.90;;;;;;5074118;28;20289;-69
2023/03/05 07:15:09;;;;;;;;;;;8.50;54.90;;;;;;5073627;28;19943;-69
2023/03/05 07:17:34;;;;;;;;;;;8.50;54.90;;;;;;5053915;28;19920;-70
2023/03/05 07:20:00;;;;;;;;;;;8.60;54.90;;;;;;5052357;28;20330;-66
2023/03/05 07:22:25;;;;;;;;;;;8.60;54.90;;;;;;5054327;28;19962;-82
2023/03/05 07:24:51;;;;;;;;;;;8.60;54.90;;;;;;5053460;28;20027;-70
2023/03/05 07:27:16;;;;;;;;;;;8.60;54.90;;;;;;5054106;28;19917;-69
2023/03/05 07:29:42;;;;;;;;;;;8.60;54.90;;;;;;5052984;28;20282;-71
2023/03/05 07:32:07;;;;;;;;;;;8.60;54.90;;;;;;5053705;28;19919;-72
2023/03/05 07:34:33;;;;;;;;;;;8.60;54.80;;;;;;5053868;28;19935;-67
2023/03/05 07:36:58;;;;;;;;;;;8.70;54.90;;;;;;5052339;28;19909;-73
2023/03/05 07:39:24;;;;;;;;;;;8.70;54.90;;;;;;5052638;28;19909;-72
2023/03/05 07:41:50;;;;;;;;;;;8.70;54.80;;;;;;5053477;28;19959;-73
2023/03/05 07:44:16;;;;;;;;;;;8.70;54.80;;;;;;5053258;28;20007;-72
2023/03/05 07:46:42;;;;;;;;;;;8.70;54.80;;;;;;5052134;28;19952;-75
2023/03/05 07:49:08;;;;;;;;;;;8.70;54.80;;;;;;5053470;28;20007;-71
2023/03/05 07:51:33;;;;;;;;;;;8.70;54.80;;;;;;5053883;28;20335;-75
2023/03/05 07:53:59;;;;;;;;;;;8.70;54.80;;;;;;5073071;28;19916;-75
2023/03/05 07:56:28;;;;;;;;;;;8.80;54.80;;;;;;5072576;28;20362;-76
2023/03/05 07:58:54;;;;;;;;;;;8.80;54.80;;;;;;5073176;28;20003;-71
2023/03/05 08:01:19;;;;;;;;;;;8.80;54.80;;;;;;5073154;28;19991;-71
2023/03/05 08:03:45;;;;;;;;;;;8.80;54.70;;;;;;5073050;28;19909;-72
2023/03/05 08:06:11;;;;;;;;;;;8.80;54.70;;;;;;5071805;28;19908;-73
2023/03/05 08:08:37;;;;;;;;;;;8.80;54.70;;;;;;5073626;28;19915;-69
2023/03/05 08:11:06;;;;;;;;;;;8.80;54.70;;;;;;5072684;28;19920;-71
2023/03/05 08:13:32;;;;;;;;;;;8.80;54.70;;;;;;5073324;28;19916;-72
2023/03/05 08:16:03;;;;;;;;;;;8.80;54.60;;;;;;5072258;28;21447;-74
2023/03/05 08:18:28;;;;;;;;;;;8.90;54.70;;;;;;5073414;28;19916;-71
2023/03/05 08:20:54;;;;;;;;;;;8.90;54.60;;;;;;5072906;28;19962;-74
2023/03/05 08:23:19;;;;;;;;;;;8.90;54.60;;;;;;5073089;28;19909;-68
2023/03/05 08:25:45;;;;;;;;;;;8.90;54.60;;;;;;5073166;28;20278;-71
2023/03/05 08:28:10;;;;;;;;;;;8.90;54.60;;;;;;5054794;28;19962;-73
2023/03/05 08:30:39;;;;;;;;;;;8.90;54.60;;;;;;5071353;28;20370;-68
2023/03/05 08:33:04;;;;;;;;;;;8.90;54.60;;;;;;5071385;28;19940;-68
2023/03/05 08:35:30;;;;;;;;;;;8.90;54.60;;;;;;5073261;28;20355;-68
2023/03/05 08:37:55;;;;;;;;;;;9.00;54.60;;;;;;5070918;28;20336;-67
2023/03/05 08:40:21;;;;;;;;;;;9.00;54.60;;;;;;5051766;28;19913;-68
2023/03/05 08:42:47;;;;;;;;;;;9.00;54.50;;;;;;5051900;28;19932;-68
2023/03/05 08:45:12;;;;;;;;;;;9.00;55.10;;;;;;5051470;28;19920;-68
2023/03/05 08:47:38;;;;;;;;;;;9.00;54.40;;;;;;5051021;28;19912;-68
2023/03/05 08:50:04;;;;;;;;;;;9.00;54.40;;;;;;5051338;28;20366;-69
2023/03/05 08:52:29;;;;;;;;;;;9.10;54.50;;;;;;5060812;28;19909;-67
2023/03/05 08:54:55;;;;;;;;;;;9.10;54.40;;;;;;5072582;28;20001;-68
2023/03/05 08:57:20;;;;;;;;;;;9.10;54.40;;;;;;5072683;28;19991;-67
2023/03/05 08:59:46;;;;;;;;;;;9.10;54.40;;;;;;5070962;28;19909;-66
2023/03/05 09:02:12;;;;;;;;;;;9.10;54.30;;;;;;5071675;28;19908;-67
2023/03/05 09:04:37;;;;;;;;;;;9.10;54.30;;;;;;5072799;28;19915;-67
2023/03/05 09:07:03;;;;;;;;;;;9.10;54.30;;;;;;5075049;28;19913;-68
2023/03/05 09:09:29;;;;;;;;;;;9.10;54.40;;;;;;5076109;28;20304;-67
2023/03/05 09:11:56;;;;;;;;;;;9.10;54.30;;;;;;5076225;28;19924;-69
2023/03/05 09:14:22;;;;;;;;;;;9.10;54.30;;;;;;5076321;28;20049;-66
2023/03/05 09:16:47;;;;;;;;;;;9.10;54.30;;;;;;5076213;28;20386;-67
2023/03/05 09:19:13;;;;;;;;;;;9.20;54.40;;;;;;5075734;28;19961;-67
2023/03/05 09:21:39;;;;;;;;;;;9.20;54.30;;;;;;5076115;28;19908;-69
2023/03/05 09:24:05;;;;;;;;;;;9.20;54.40;;;;;;5076450;28;20050;-67
2023/03/05 09:26:30;;;;;;;;;;;9.20;54.40;;;;;;5076053;28;20279;-67
2023/03/05 09:28:56;;;;;;;;;;;9.20;54.30;;;;;;5075340;28;20375;-67
2023/03/05 09:31:21;;;;;;;;;;;9.30;54.30;;;;;;5074374;28;19912;-67
2023/03/05 09:33:47;;;;;;;;;;;9.20;54.20;;;;;;5075951;28;19916;-67
2023/03/05 09:36:18;;;;;;;;;;;9.30;54.20;;;;;;5076099;28;19919;-69
2023/03/05 09:38:43;;;;;;;;;;;9.30;54.30;;;;;;5070048;28;20023;-68
2023/03/05 09:41:20;;;;;;;;;;;9.30;54.20;;;;;;5056048;28;20414;-67
2023/03/05 09:43:46;;;;;;;;;;;9.30;54.20;;;;;;5056377;28;19909;-67
2023/03/05 09:46:24;;;;;;;;;;;9.30;54.20;;;;;;5056183;28;19909;-66
2023/03/05 09:48:56;;;;;;;;;;;9.30;54.10;;;;;;5059842;28;19913;-67
2023/03/05 09:51:28;;;;;;;;;;;9.30;54.10;;;;;;5064796;28;19921;-68
2023/03/05 09:53:53;;;;;;;;;;;9.30;54.10;;;;;;5065067;28;19923;-68
2023/03/05 09:56:21;;;;;;;;;;;9.30;54.10;;;;;;5064053;28;19995;-67
2023/03/05 09:59:13;;;;;;;;;;;9.30;54.10;;;;;;5066442;28;19920;-67
2023/03/05 10:01:41;;;;;;;;;;;9.40;54.20;;;;;;5050587;28;20324;-67
2023/03/05 10:04:12;;;;;;;;;;;9.30;54.10;;;;;;5058181;28;19909;-67
2023/03/05 10:06:43;;;;;;;;;;;9.40;54.10;;;;;;5055077;28;20347;-68
2023/03/05 10:09:09;;;;;;;;;;;9.40;54.00;;;;;;5054964;28;19909;-68
2023/03/05 10:11:48;;;;;;;;;;;9.40;54.00;;;;;;5055791;28;20007;-68
2023/03/05 10:14:23;;;;;;;;;;;9.40;54.00;;;;;;5056113;28;19917;-69
2023/03/05 10:16:48;;;;;;;;;;;9.50;54.00;;;;;;5056113;28;19917;-67
2023/03/05 10:19:14;;;;;;;;;;;9.50;54.00;;;;;;5055015;28;19970;-68
2023/03/05 10:21:42;;;;;;;;;;;9.60;53.90;;;;;;5055939;28;19995;-67
2023/03/05 10:24:17;;;;;;;;;;;9.60;53.80;;;;;;5056171;28;19959;-67
2023/03/05 10:27:03;;;;;;;;;;;9.60;53.80;;;;;;5054616;28;19932;-67
2023/03/05 10:29:48;;;;;;;;;;;9.60;53.70;;;;;;5055704;28;20363;-67
2023/03/05 10:32:13;;;;;;;;;;;9.60;53.70;;;;;;5055971;28;19909;-67
2023/03/05 10:35:05;;;;;;;;;;;9.60;53.70;;;;;;5055519;28;19913;-67
2023/03/05 10:37:45;;;;;;;;;;;9.60;53.70;;;;;;5053074;28;19996;-67
2023/03/05 10:40:14;;;;;;;;;;;9.60;53.70;;;;;;5055941;28;19962;-67
2023/03/05 10:42:39;;;;;;;;;;;9.70;53.70;;;;;;5055603;28;19955;-67
2023/03/05 10:45:20;;;;;;;;;;;9.60;53.50;;;;;;5055364;28;19909;-68
2023/03/05 10:47:45;;;;;;;;;;;9.60;53.50;;;;;;5055680;28;19955;-68
2023/03/05 10:50:17;;;;;;;;;;;9.60;53.50;;;;;;5054089;28;19908;-68
2023/03/05 10:52:47;;;;;;;;;;;9.60;53.60;;;;;;5055354;28;19915;-71
2023/03/05 10:55:14;;;;;;;;;;;9.60;53.60;;;;;;5055634;28;19913;-67
2023/03/05 10:57:40;;;;;;;;;;;9.60;53.60;;;;;;5055196;28;19999;-67
2023/03/05 11:00:15;;;;;;;;;;;9.60;53.60;;;;;;5055019;28;19948;-67
2023/03/05 11:02:53;;;;;;;;;;;9.60;53.50;;;;;;5054875;28;20003;-68
2023/03/05 11:05:30;;;;;;;;;;;9.60;53.60;;;;;;5055333;28;19913;-66
2023/03/05 11:07:56;;;;;;;;;;;9.70;53.60;;;;;;5054819;28;19909;-69
2023/03/05 11:10:21;;;;;;;;;;;9.60;53.50;;;;;;5054887;28;19916;-67
2023/03/05 11:12:47;;;;;;;;;;;9.60;53.50;;;;;;5053734;28;19920;-67
2023/03/05 11:15:13;;;;;;;;;;;9.60;53.60;;;;;;5054692;28;19940;-68
2023/03/05 11:17:43;;;;;;;;;;;9.60;53.50;;;;;;5053608;28;19917;-67
2023/03/05 11:20:30;;;;;;;;;;;9.60;53.50;;;;;;5054827;28;20325;-67
2023/03/05 11:23:13;;;;;;;;;;;9.70;53.50;;;;;;5054778;28;19909;-66
2023/03/05 11:25:53;;;;;;;;;;;9.60;53.40;;;;;;5054774;28;20271;-68
2023/03/05 11:28:20;;;;;;;;;;;9.70;53.50;;;;;;5054629;28;19909;-69
2023/03/05 11:30:57;;;;;;;;;;;9.60;53.40;;;;;;5054019;28;19909;-67
2023/03/05 11:33:22;;;;;;;;;;;9.60;53.50;;;;;;5054535;28;20346;-68
2023/03/05 11:35:49;;;;;;;;;;;9.60;53.50;;;;;;5054364;28;20007;-67
2023/03/05 11:38:23;;;;;;;;;;;9.60;53.50;;;;;;5054133;28;19940;-67
2023/03/05 11:40:49;;;;;;;;;;;9.70;53.50;;;;;;5054477;28;19916;-68
2023/03/05 11:43:16;;;;;;;;;;;9.70;53.50;;;;;;5053361;28;19909;-67
2023/03/05 11:45:42;;;;;;;;;;;9.70;53.40;;;;;;5054199;28;20282;-67
2023/03/05 11:48:11;;;;;;;;;;;9.70;53.40;;;;;;5054255;28;19975;-67
2023/03/05 11:50:36;;;;;;;;;;;9.80;53.40;;;;;;5053939;28;19909;-68
2023/03/05 11:53:03;;;;;;;;;;;9.80;53.30;;;;;;5054185;28;19917;-68
2023/03/05 11:55:38;;;;;;;;;;;9.70;53.20;;;;;;5052919;28;19924;-68
2023/03/05 11:58:37;;;;;;;;;;;9.70;53.30;;;;;;5054175;28;19944;-67
2023/03/05 12:01:05;;;;;;;;;;;9.70;53.30;;;;;;5031201;28;19909;-69
2023/03/05 12:03:32;;;;;;;;;;;9.70;53.20;;;;;;5053926;28;19909;-67
2023/03/05 12:06:09;;;;;;;;;;;9.80;53.40;;;;;;5054461;28;19909;-69
2023/03/05 12:08:37;;;;;;;;;;;9.80;53.30;;;;;;5053664;28;20362;-67
2023/03/05 12:11:12;;;;;;;;;;;9.90;53.30;;;;;;5053624;28;20011;-67
2023/03/05 12:13:41;;;;;;;;;;;9.90;53.30;;;;;;5053791;28;19959;-68
2023/03/05 12:16:17;;;;;;;;;;;10.00;53.30;;;;;;5054426;28;20401;-67
2023/03/05 12:18:48;;;;;;;;;;;10.00;53.20;;;;;;5053782;28;19961;-70
2023/03/05 12:21:33;;;;;;;;;;;10.10;53.20;;;;;;5053969;28;20351;-68
2023/03/05 12:24:00;;;;;;;;;;;10.20;53.20;;;;;;5053548;28;19951;-67
2023/03/05 12:26:46;;;;;;;;;;;10.20;53.00;;;;;;5052975;28;19913;-69
2023/03/05 12:29:31;;;;;;;;;;;10.20;53.00;;;;;;5046352;28;19909;-69
2023/03/05 12:31:57;;;;;;;;;;;10.20;52.80;;;;;;5053624;28;19909;-66
2023/03/05 12:34:35;;;;;;;;;;;10.20;52.80;;;;;;5052227;28;19923;-67
2023/03/05 12:37:02;;;;;;;;;;;10.20;52.80;;;;;;5053792;28;19967;-67
2023/03/05 12:39:43;;;;;;;;;;;10.20;52.80;;;;;;5060820;28;19908;-67
2023/03/05 12:42:26;;;;;;;;;;;10.20;52.80;;;;;;5075632;28;19912;-69
2023/03/05 12:45:10;;;;;;;;;;;10.20;52.80;;;;;;5077243;28;19998;-67
2023/03/05 12:47:37;;;;;;;;;;;10.20;52.80;;;;;;5077724;28;20354;-68
2023/03/05 12:50:03;;;;;;;;;;;10.10;52.70;;;;;;5076843;28;19915;-68
2023/03/05 12:52:29;;;;;;;;;;;10.20;52.80;;;;;;5077408;28;20226;-68
2023/03/05 12:55:02;;;;;;;;;;;10.20;52.80;;;;;;5077356;28;19971;-67
2023/03/05 12:57:28;;;;;;;;;;;10.20;52.80;;;;;;5077804;28;19916;-67
2023/03/05 12:59:54;;;;;;;;;;;10.20;52.80;;;;;;5077524;28;20313;-66
2023/03/05 13:02:40;;;;;;;;;;;10.20;52.80;;;;;;5076212;28;19915;-67
2023/03/05 13:05:41;;;;;;;;;;;10.20;52.80;;;;;;5076742;28;19908;-69
2023/03/05 13:08:18;;;;;;;;;;;10.20;52.80;;;;;;5035179;28;20490;-67
2023/03/05 13:10:50;;;;;;;;;;;10.30;52.80;;;;;;5071264;28;19962;-67
2023/03/05 13:13:15;;;;;;;;;;;10.30;52.70;;;;;;5077266;28;20399;-67
2023/03/05 13:15:44;;;;;;;;;;;10.40;52.70;;;;;;5077221;28;19916;-68
2023/03/05 13:18:20;;;;;;;;;;;10.40;52.80;;;;;;5077281;28;19963;-66
2023/03/05 13:20:49;;;;;;;;;;;10.50;52.70;;;;;;5077351;28;19912;-68
2023/03/05 13:23:27;;;;;;;;;;;10.60;52.70;;;;;;5076179;28;20033;-67
2023/03/05 13:26:14;;;;;;;;;;;10.60;52.50;;;;;;5077087;28;20397;-69
2023/03/05 13:28:41;;;;;;;;;;;10.70;52.50;;;;;;5076686;28;20373;-68
2023/03/05 13:31:17;;;;;;;;;;;10.80;52.40;;;;;;5076982;28;19908;-67
2023/03/05 13:33:54;;;;;;;;;;;10.80;52.40;;;;;;5075994;28;20332;-68
2023/03/05 13:36:21;;;;;;;;;;;10.90;52.30;;;;;;5077043;28;19970;-68
2023/03/05 13:38:47;;;;;;;;;;;11.00;52.20;;;;;;5076893;28;19908;-67
2023/03/05 13:41:21;;;;;;;;;;;11.10;52.00;;;;;;5076846;28;19953;-67
2023/03/05 13:43:54;;;;;;;;;;;11.10;52.00;;;;;;5077256;28;19913;-67
2023/03/05 13:46:33;;;;;;;;;;;11.20;52.00;;;;;;5076633;28;19962;-67
2023/03/05 13:49:20;;;;;;;;;;;11.30;52.00;;;;;;5076824;28;19913;-68
2023/03/05 13:51:47;;;;;;;;;;;11.40;51.90;;;;;;5076493;28;19918;-68
2023/03/05 13:54:14;;;;;;;;;;;11.50;51.60;;;;;;5075513;28;19913;-67
2023/03/05 13:56:52;;;;;;;;;;;11.60;51.40;;;;;;5075351;28;20325;-68
2023/03/05 13:59:18;;;;;;;;;;;11.60;51.40;;;;;;5076526;28;19916;-69
2023/03/05 14:01:45;;;;;;;;;;;11.60;51.40;;;;;;5076594;28;20274;-67
2023/03/05 14:04:13;;;;;;;;;;;11.70;51.50;;;;;;5076233;28;20086;-67
2023/03/05 14:06:50;;;;;;;;;;;11.90;51.50;;;;;;5076367;28;19912;-67
2023/03/05 14:09:19;;;;;;;;;;;12.00;51.30;;;;;;5076132;28;19961;-67
2023/03/05 14:12:11;;;;;;;;;;;12.20;51.10;;;;;;5075009;28;19920;-67
2023/03/05 14:14:37;;;;;;;;;;;12.30;50.90;;;;;;5059897;28;20351;-68
2023/03/05 14:17:19;;;;;;;;;;;12.30;50.60;;;;;;5075028;28;20389;-68
2023/03/05 14:19:45;;;;;;;;;;;12.20;50.50;;;;;;5074706;28;20302;-68
2023/03/05 14:22:32;;;;;;;;;;;12.20;50.50;;;;;;5076157;28;20046;-68
2023/03/05 14:24:58;;;;;;;;;;;12.20;50.50;;;;;;5075951;28;19998;-68
2023/03/05 14:27:24;;;;;;;;;;;12.00;50.50;;;;;;5076100;28;19908;-68
2023/03/05 14:29:50;;;;;;;;;;;11.90;50.70;;;;;;5075751;28;19908;-68
2023/03/05 14:32:21;;;;;;;;;;;11.90;50.70;;;;;;5075903;28;20002;-68
2023/03/05 14:34:50;;;;;;;;;;;11.80;50.80;;;;;;5075892;28;19952;-68